sensor_id;sensor_type;location;lat;lon;timestamp;P1;durP1;ratioP1;P2;durP2;ratioP2
79728;SDS011;69218;52.132;5.418;2023-10-13T00:02:01;13.77;;;5.47;;
79728;SDS011;69218;52.132;5.418;2023-10-13T00:04:31;11.98;;;5.35;;
79728;SDS011;69218;52.132;5.418;2023-10-13T00:07:04;12.88;;;5.82;;
79728;SDS011;69218;52.132;5.418;2023-10-13T00:09:35;11.30;;;5.47;;
79728;SDS011;69218;52.132;5.418;2023-10-13T00:12:06;10.55;;;5.20;;
79728;SDS011;69218;52.132;5.418;2023-10-13T00:14:40;12.77;;;5.63;;
79728;SDS011;69218;52.132;5.418;2023-10-13T00:17:09;11.77;;;5.57;;
79728;SDS011;69218;52.132;5.418;2023-10-13T00:19:42;11.65;;;5.85;;
79728;SDS011;69218;52.132;5.418;2023-10-13T00:22:14;13.68;;;5.85;;
79728;SDS011;69218;52.132;5.418;2023-10-13T00:24:46;12.20;;;5.32;;
79728;SDS011;69218;52.132;5.418;2023-10-13T00:27:16;11.43;;;5.75;;
79728;SDS011;69218;52.132;5.418;2023-10-13T00:29:59;16.48;;;5.82;;
79728;SDS011;69218;52.132;5.418;2023-10-13T00:32:45;11.32;;;5.30;;
79728;SDS011;69218;52.132;5.418;2023-10-13T00:35:18;14.00;;;6.20;;
79728;SDS011;69218;52.132;5.418;2023-10-13T00:38:03;12.00;;;5.22;;
79728;SDS011;69218;52.132;5.418;2023-10-13T00:40:31;13.35;;;5.50;;
79728;SDS011;69218;52.132;5.418;2023-10-13T00:42:58;12.80;;;5.70;;
79728;SDS011;69218;52.132;5.418;2023-10-13T00:45:45;13.07;;;5.47;;
79728;SDS011;69218;52.132;5.418;2023-10-13T00:48:22;12.43;;;4.78;;
79728;SDS011;69218;52.132;5.418;2023-10-13T00:51:03;13.23;;;5.32;;
79728;SDS011;69218;52.132;5.418;2023-10-13T00:53:33;10.20;;;4.85;;
79728;SDS011;69218;52.132;5.418;2023-10-13T00:56:03;11.10;;;5.10;;
79728;SDS011;69218;52.132;5.418;2023-10-13T00:58:34;11.73;;;5.25;;
79728;SDS011;69218;52.132;5.418;2023-10-13T01:01:01;12.70;;;5.03;;
79728;SDS011;69218;52.132;5.418;2023-10-13T01:03:45;12.45;;;5.22;;
79728;SDS011;69218;52.132;5.418;2023-10-13T01:06:15;10.57;;;5.00;;
79728;SDS011;69218;52.132;5.418;2023-10-13T01:08:46;14.25;;;5.53;;
79728;SDS011;69218;52.132;5.418;2023-10-13T01:11:20;10.52;;;5.65;;
79728;SDS011;69218;52.132;5.418;2023-10-13T01:13:53;12.85;;;5.65;;
79728;SDS011;69218;52.132;5.418;2023-10-13T01:16:19;11.18;;;5.03;;
79728;SDS011;69218;52.132;5.418;2023-10-13T01:18:53;16.13;;;6.38;;
79728;SDS011;69218;52.132;5.418;2023-10-13T01:21:26;14.10;;;6.03;;
79728;SDS011;69218;52.132;5.418;2023-10-13T01:23:56;13.65;;;6.53;;
79728;SDS011;69218;52.132;5.418;2023-10-13T01:26:22;16.60;;;6.75;;
79728;SDS011;69218;52.132;5.418;2023-10-13T01:28:58;13.98;;;7.15;;
79728;SDS011;69218;52.132;5.418;2023-10-13T01:31:25;13.10;;;6.55;;
79728;SDS011;69218;52.132;5.418;2023-10-13T01:33:54;12.95;;;5.85;;
79728;SDS011;69218;52.132;5.418;2023-10-13T01:36:21;13.52;;;6.88;;
79728;SDS011;69218;52.132;5.418;2023-10-13T01:38:51;13.43;;;6.70;;
79728;SDS011;69218;52.132;5.418;2023-10-13T01:41:17;12.38;;;6.68;;
79728;SDS011;69218;52.132;5.418;2023-10-13T01:43:45;12.48;;;6.15;;
79728;SDS011;69218;52.132;5.418;2023-10-13T01:46:12;13.52;;;6.28;;
79728;SDS011;69218;52.132;5.418;2023-10-13T01:48:48;15.82;;;6.55;;
79728;SDS011;69218;52.132;5.418;2023-10-13T01:51:14;15.10;;;7.38;;
79728;SDS011;69218;52.132;5.418;2023-10-13T01:53:41;13.70;;;6.80;;
79728;SDS011;69218;52.132;5.418;2023-10-13T01:56:08;14.68;;;6.95;;
79728;SDS011;69218;52.132;5.418;2023-10-13T01:58:37;15.75;;;6.97;;
79728;SDS011;69218;52.132;5.418;2023-10-13T02:01:09;13.75;;;6.78;;
79728;SDS011;69218;52.132;5.418;2023-10-13T02:03:37;13.52;;;6.50;;
79728;SDS011;69218;52.132;5.418;2023-10-13T02:06:12;16.33;;;6.03;;
79728;SDS011;69218;52.132;5.418;2023-10-13T02:08:43;11.65;;;5.88;;
79728;SDS011;69218;52.132;5.418;2023-10-13T02:11:13;12.48;;;5.90;;
79728;SDS011;69218;52.132;5.418;2023-10-13T02:13:44;13.55;;;6.40;;
79728;SDS011;69218;52.132;5.418;2023-10-13T02:16:15;10.82;;;6.13;;
79728;SDS011;69218;52.132;5.418;2023-10-13T02:18:47;14.57;;;6.35;;
79728;SDS011;69218;52.132;5.418;2023-10-13T02:21:17;15.38;;;6.20;;
79728;SDS011;69218;52.132;5.418;2023-10-13T02:23:44;11.68;;;5.65;;
79728;SDS011;69218;52.132;5.418;2023-10-13T02:26:26;12.82;;;5.60;;
79728;SDS011;69218;52.132;5.418;2023-10-13T02:28:58;11.18;;;5.93;;
79728;SDS011;69218;52.132;5.418;2023-10-13T02:31:37;11.35;;;5.25;;
79728;SDS011;69218;52.132;5.418;2023-10-13T02:34:05;10.30;;;5.70;;
79728;SDS011;69218;52.132;5.418;2023-10-13T02:36:36;11.93;;;5.45;;
79728;SDS011;69218;52.132;5.418;2023-10-13T02:39:10;11.95;;;5.35;;
79728;SDS011;69218;52.132;5.418;2023-10-13T02:41:36;9.90;;;5.40;;
79728;SDS011;69218;52.132;5.418;2023-10-13T02:44:03;11.85;;;5.30;;
79728;SDS011;69218;52.132;5.418;2023-10-13T02:46:46;10.43;;;4.85;;
79728;SDS011;69218;52.132;5.418;2023-10-13T02:49:16;9.73;;;5.43;;
79728;SDS011;69218;52.132;5.418;2023-10-13T02:51:46;9.90;;;5.72;;
79728;SDS011;69218;52.132;5.418;2023-10-13T02:54:13;10.65;;;5.30;;
79728;SDS011;69218;52.132;5.418;2023-10-13T02:56:45;11.48;;;5.63;;
79728;SDS011;69218;52.132;5.418;2023-10-13T02:59:24;11.32;;;5.00;;
79728;SDS011;69218;52.132;5.418;2023-10-13T03:02:01;9.18;;;4.78;;
79728;SDS011;69218;52.132;5.418;2023-10-13T03:04:49;13.52;;;5.18;;
79728;SDS011;69218;52.132;5.418;2023-10-13T03:07:16;11.15;;;4.72;;
79728;SDS011;69218;52.132;5.418;2023-10-13T03:09:49;8.57;;;4.43;;
79728;SDS011;69218;52.132;5.418;2023-10-13T03:12:17;8.93;;;4.70;;
79728;SDS011;69218;52.132;5.418;2023-10-13T03:14:45;11.07;;;4.50;;
79728;SDS011;69218;52.132;5.418;2023-10-13T03:17:14;12.63;;;4.90;;
79728;SDS011;69218;52.132;5.418;2023-10-13T03:19:45;12.13;;;4.78;;
79728;SDS011;69218;52.132;5.418;2023-10-13T03:22:16;9.77;;;4.28;;
79728;SDS011;69218;52.132;5.418;2023-10-13T03:24:44;9.30;;;4.60;;
79728;SDS011;69218;52.132;5.418;2023-10-13T03:27:16;10.82;;;4.80;;
79728;SDS011;69218;52.132;5.418;2023-10-13T03:29:48;12.45;;;5.28;;
79728;SDS011;69218;52.132;5.418;2023-10-13T03:32:21;10.98;;;4.68;;
79728;SDS011;69218;52.132;5.418;2023-10-13T03:34:48;9.32;;;4.57;;
79728;SDS011;69218;52.132;5.418;2023-10-13T03:37:27;13.15;;;4.43;;
79728;SDS011;69218;52.132;5.418;2023-10-13T03:40:08;8.88;;;3.78;;
79728;SDS011;69218;52.132;5.418;2023-10-13T03:42:49;9.45;;;4.22;;
79728;SDS011;69218;52.132;5.418;2023-10-13T03:45:38;10.07;;;4.03;;
79728;SDS011;69218;52.132;5.418;2023-10-13T03:48:06;9.20;;;3.67;;
79728;SDS011;69218;52.132;5.418;2023-10-13T03:50:39;8.32;;;3.85;;
79728;SDS011;69218;52.132;5.418;2023-10-13T03:53:14;9.07;;;3.63;;
79728;SDS011;69218;52.132;5.418;2023-10-13T03:55:40;9.90;;;4.05;;
79728;SDS011;69218;52.132;5.418;2023-10-13T03:58:14;7.93;;;3.53;;
79728;SDS011;69218;52.132;5.418;2023-10-13T04:00:43;10.02;;;4.40;;
79728;SDS011;69218;52.132;5.418;2023-10-13T04:03:09;8.73;;;3.70;;
79728;SDS011;69218;52.132;5.418;2023-10-13T04:05:36;9.00;;;4.13;;
79728;SDS011;69218;52.132;5.418;2023-10-13T04:08:06;7.25;;;3.80;;
79728;SDS011;69218;52.132;5.418;2023-10-13T04:10:51;7.35;;;3.53;;
79728;SDS011;69218;52.132;5.418;2023-10-13T04:13:19;7.70;;;4.20;;
79728;SDS011;69218;52.132;5.418;2023-10-13T04:16:07;8.80;;;4.03;;
79728;SDS011;69218;52.132;5.418;2023-10-13T04:18:49;9.80;;;3.97;;
79728;SDS011;69218;52.132;5.418;2023-10-13T04:21:22;8.38;;;3.65;;
79728;SDS011;69218;52.132;5.418;2023-10-13T04:24:09;8.48;;;3.90;;
79728;SDS011;69218;52.132;5.418;2023-10-13T04:26:43;9.27;;;4.10;;
79728;SDS011;69218;52.132;5.418;2023-10-13T04:29:46;9.25;;;3.83;;
79728;SDS011;69218;52.132;5.418;2023-10-13T04:32:18;9.07;;;3.90;;
79728;SDS011;69218;52.132;5.418;2023-10-13T04:35:05;7.00;;;3.63;;
79728;SDS011;69218;52.132;5.418;2023-10-13T04:37:40;8.90;;;3.80;;
79728;SDS011;69218;52.132;5.418;2023-10-13T04:40:25;8.45;;;3.80;;
79728;SDS011;69218;52.132;5.418;2023-10-13T04:42:54;6.57;;;2.92;;
79728;SDS011;69218;52.132;5.418;2023-10-13T04:45:23;6.45;;;3.85;;
79728;SDS011;69218;52.132;5.418;2023-10-13T04:47:55;6.82;;;3.40;;
79728;SDS011;69218;52.132;5.418;2023-10-13T04:50:40;8.40;;;3.50;;
79728;SDS011;69218;52.132;5.418;2023-10-13T04:53:13;6.78;;;3.60;;
79728;SDS011;69218;52.132;5.418;2023-10-13T04:55:59;6.68;;;2.92;;
79728;SDS011;69218;52.132;5.418;2023-10-13T04:58:30;5.85;;;2.95;;
79728;SDS011;69218;52.132;5.418;2023-10-13T05:01:00;6.38;;;2.85;;
79728;SDS011;69218;52.132;5.418;2023-10-13T05:03:55;6.93;;;2.78;;
79728;SDS011;69218;52.132;5.418;2023-10-13T05:06:34;5.20;;;2.60;;
79728;SDS011;69218;52.132;5.418;2023-10-13T05:09:10;5.18;;;2.63;;
79728;SDS011;69218;52.132;5.418;2023-10-13T05:12:03;6.45;;;2.80;;
79728;SDS011;69218;52.132;5.418;2023-10-13T05:14:48;5.53;;;2.33;;
79728;SDS011;69218;52.132;5.418;2023-10-13T05:17:33;5.78;;;2.90;;
79728;SDS011;69218;52.132;5.418;2023-10-13T05:20:18;6.78;;;2.70;;
79728;SDS011;69218;52.132;5.418;2023-10-13T05:23:04;7.03;;;3.10;;
79728;SDS011;69218;52.132;5.418;2023-10-13T05:25:48;5.97;;;2.95;;
79728;SDS011;69218;52.132;5.418;2023-10-13T05:28:33;8.57;;;4.00;;
79728;SDS011;69218;52.132;5.418;2023-10-13T05:31:18;8.73;;;3.90;;
79728;SDS011;69218;52.132;5.418;2023-10-13T05:34:03;8.43;;;3.80;;
79728;SDS011;69218;52.132;5.418;2023-10-13T05:36:48;6.53;;;3.88;;
79728;SDS011;69218;52.132;5.418;2023-10-13T05:39:33;10.10;;;4.03;;
79728;SDS011;69218;52.132;5.418;2023-10-13T05:42:18;9.45;;;4.05;;
79728;SDS011;69218;52.132;5.418;2023-10-13T05:45:04;7.47;;;3.75;;
79728;SDS011;69218;52.132;5.418;2023-10-13T05:47:50;9.40;;;3.45;;
79728;SDS011;69218;52.132;5.418;2023-10-13T05:50:28;6.20;;;3.58;;
79728;SDS011;69218;52.132;5.418;2023-10-13T05:55:41;6.47;;;3.15;;
79728;SDS011;69218;52.132;5.418;2023-10-13T05:58:26;6.00;;;2.58;;
79728;SDS011;69218;52.132;5.418;2023-10-13T06:01:12;7.03;;;2.72;;
79728;SDS011;69218;52.132;5.418;2023-10-13T06:03:57;7.13;;;3.03;;
79728;SDS011;69218;52.132;5.418;2023-10-13T06:06:42;8.50;;;2.75;;
79728;SDS011;69218;52.132;5.418;2023-10-13T06:09:27;8.82;;;3.10;;
79728;SDS011;69218;52.132;5.418;2023-10-13T06:12:12;7.43;;;3.28;;
79728;SDS011;69218;52.132;5.418;2023-10-13T06:14:58;11.27;;;3.22;;
79728;SDS011;69218;52.132;5.418;2023-10-13T06:17:43;7.57;;;3.22;;
79728;SDS011;69218;52.132;5.418;2023-10-13T06:20:28;7.28;;;3.03;;
79728;SDS011;69218;52.132;5.418;2023-10-13T06:23:13;6.07;;;3.33;;
79728;SDS011;69218;52.132;5.418;2023-10-13T06:25:58;8.20;;;2.97;;
79728;SDS011;69218;52.132;5.418;2023-10-13T06:28:43;6.95;;;3.05;;
79728;SDS011;69218;52.132;5.418;2023-10-13T06:31:12;8.98;;;3.42;;
79728;SDS011;69218;52.132;5.418;2023-10-13T06:33:48;8.30;;;3.22;;
79728;SDS011;69218;52.132;5.418;2023-10-13T06:36:15;7.35;;;3.15;;
79728;SDS011;69218;52.132;5.418;2023-10-13T06:38:43;6.97;;;2.78;;
79728;SDS011;69218;52.132;5.418;2023-10-13T06:41:10;7.20;;;3.17;;
79728;SDS011;69218;52.132;5.418;2023-10-13T06:43:46;7.03;;;3.20;;
79728;SDS011;69218;52.132;5.418;2023-10-13T06:46:25;8.80;;;3.53;;
79728;SDS011;69218;52.132;5.418;2023-10-13T06:48:55;8.25;;;4.05;;
79728;SDS011;69218;52.132;5.418;2023-10-13T06:51:22;8.00;;;3.63;;
79728;SDS011;69218;52.132;5.418;2023-10-13T06:53:53;8.82;;;3.65;;
79728;SDS011;69218;52.132;5.418;2023-10-13T06:56:23;6.32;;;3.67;;
79728;SDS011;69218;52.132;5.418;2023-10-13T06:58:55;8.35;;;3.92;;
79728;SDS011;69218;52.132;5.418;2023-10-13T07:01:26;9.40;;;3.95;;
79728;SDS011;69218;52.132;5.418;2023-10-13T07:03:53;10.52;;;4.35;;
79728;SDS011;69218;52.132;5.418;2023-10-13T07:06:20;7.22;;;4.35;;
79728;SDS011;69218;52.132;5.418;2023-10-13T07:08:47;7.50;;;4.25;;
79728;SDS011;69218;52.132;5.418;2023-10-13T07:11:25;10.85;;;5.00;;
79728;SDS011;69218;52.132;5.418;2023-10-13T07:14:04;11.52;;;5.30;;
79728;SDS011;69218;52.132;5.418;2023-10-13T07:16:43;9.55;;;4.88;;
79728;SDS011;69218;52.132;5.418;2023-10-13T07:19:13;10.57;;;4.78;;
79728;SDS011;69218;52.132;5.418;2023-10-13T07:21:46;7.90;;;4.63;;
79728;SDS011;69218;52.132;5.418;2023-10-13T07:24:13;9.15;;;4.63;;
79728;SDS011;69218;52.132;5.418;2023-10-13T07:26:40;10.05;;;5.35;;
79728;SDS011;69218;52.132;5.418;2023-10-13T07:29:10;7.57;;;5.00;;
79728;SDS011;69218;52.132;5.418;2023-10-13T07:31:37;9.52;;;5.00;;
79728;SDS011;69218;52.132;5.418;2023-10-13T07:34:06;9.60;;;4.80;;
79728;SDS011;69218;52.132;5.418;2023-10-13T07:36:39;8.50;;;4.47;;
79728;SDS011;69218;52.132;5.418;2023-10-13T07:39:09;8.43;;;4.00;;
79728;SDS011;69218;52.132;5.418;2023-10-13T07:41:49;8.13;;;4.45;;
79728;SDS011;69218;52.132;5.418;2023-10-13T07:44:32;8.77;;;3.97;;
79728;SDS011;69218;52.132;5.418;2023-10-13T07:47:00;10.32;;;4.05;;
79728;SDS011;69218;52.132;5.418;2023-10-13T07:49:36;7.90;;;3.75;;
79728;SDS011;69218;52.132;5.418;2023-10-13T07:52:07;10.05;;;3.95;;
79728;SDS011;69218;52.132;5.418;2023-10-13T07:54:50;8.82;;;3.67;;
79728;SDS011;69218;52.132;5.418;2023-10-13T07:57:38;7.30;;;3.50;;
79728;SDS011;69218;52.132;5.418;2023-10-13T08:00:20;9.93;;;3.65;;
79728;SDS011;69218;52.132;5.418;2023-10-13T08:03:07;8.02;;;3.38;;
79728;SDS011;69218;52.132;5.418;2023-10-13T08:05:56;6.88;;;3.58;;
79728;SDS011;69218;52.132;5.418;2023-10-13T08:08:32;8.35;;;3.58;;
79728;SDS011;69218;52.132;5.418;2023-10-13T08:11:12;7.82;;;3.30;;
79728;SDS011;69218;52.132;5.418;2023-10-13T08:13:55;9.10;;;3.55;;
79728;SDS011;69218;52.132;5.418;2023-10-13T08:16:38;6.55;;;3.05;;
79728;SDS011;69218;52.132;5.418;2023-10-13T08:19:13;8.13;;;3.60;;
79728;SDS011;69218;52.132;5.418;2023-10-13T08:21:43;6.80;;;3.00;;
79728;SDS011;69218;52.132;5.418;2023-10-13T08:24:42;7.57;;;2.83;;
79728;SDS011;69218;52.132;5.418;2023-10-13T08:27:08;8.95;;;3.78;;
79728;SDS011;69218;52.132;5.418;2023-10-13T08:32:20;7.93;;;3.33;;
79728;SDS011;69218;52.132;5.418;2023-10-13T08:34:54;8.50;;;3.20;;
79728;SDS011;69218;52.132;5.418;2023-10-13T08:37:21;7.55;;;3.20;;
79728;SDS011;69218;52.132;5.418;2023-10-13T08:39:51;9.35;;;3.38;;
79728;SDS011;69218;52.132;5.418;2023-10-13T08:42:50;9.98;;;3.33;;
79728;SDS011;69218;52.132;5.418;2023-10-13T08:45:40;9.40;;;3.22;;
79728;SDS011;69218;52.132;5.418;2023-10-13T08:48:11;10.40;;;3.33;;
79728;SDS011;69218;52.132;5.418;2023-10-13T08:50:43;8.93;;;3.00;;
79728;SDS011;69218;52.132;5.418;2023-10-13T08:53:22;13.73;;;3.53;;
79728;SDS011;69218;52.132;5.418;2023-10-13T08:56:05;10.02;;;3.40;;
79728;SDS011;69218;52.132;5.418;2023-10-13T09:04:06;9.65;;;3.13;;
79728;SDS011;69218;52.132;5.418;2023-10-13T09:06:54;9.82;;;3.40;;
79728;SDS011;69218;52.132;5.418;2023-10-13T09:09:55;7.75;;;2.95;;
79728;SDS011;69218;52.132;5.418;2023-10-13T09:12:25;8.68;;;2.83;;
79728;SDS011;69218;52.132;5.418;2023-10-13T09:14:58;7.28;;;3.28;;
79728;SDS011;69218;52.132;5.418;2023-10-13T09:17:41;10.73;;;3.53;;
79728;SDS011;69218;52.132;5.418;2023-10-13T09:20:17;11.60;;;3.38;;
79728;SDS011;69218;52.132;5.418;2023-10-13T09:23:12;8.50;;;3.50;;
79728;SDS011;69218;52.132;5.418;2023-10-13T09:25:50;10.93;;;3.38;;
79728;SDS011;69218;52.132;5.418;2023-10-13T09:28:24;8.80;;;3.53;;
79728;SDS011;69218;52.132;5.418;2023-10-13T09:30:55;8.85;;;3.58;;
79728;SDS011;69218;52.132;5.418;2023-10-13T09:33:26;10.15;;;3.53;;
79728;SDS011;69218;52.132;5.418;2023-10-13T09:38:33;8.82;;;2.92;;
79728;SDS011;69218;52.132;5.418;2023-10-13T09:41:03;8.07;;;3.17;;
79728;SDS011;69218;52.132;5.418;2023-10-13T09:43:44;9.88;;;3.30;;
79728;SDS011;69218;52.132;5.418;2023-10-13T09:46:18;9.95;;;3.50;;
79728;SDS011;69218;52.132;5.418;2023-10-13T09:48:54;8.57;;;3.60;;
79728;SDS011;69218;52.132;5.418;2023-10-13T09:51:40;11.15;;;3.53;;
79728;SDS011;69218;52.132;5.418;2023-10-13T09:54:24;10.63;;;4.13;;
79728;SDS011;69218;52.132;5.418;2023-10-13T09:57:05;8.45;;;3.33;;
79728;SDS011;69218;52.132;5.418;2023-10-13T09:59:42;10.05;;;3.28;;
79728;SDS011;69218;52.132;5.418;2023-10-13T10:02:23;8.10;;;3.25;;
79728;SDS011;69218;52.132;5.418;2023-10-13T10:04:56;10.23;;;3.40;;
79728;SDS011;69218;52.132;5.418;2023-10-13T10:07:39;10.40;;;3.70;;
79728;SDS011;69218;52.132;5.418;2023-10-13T10:10:20;9.85;;;3.33;;
79728;SDS011;69218;52.132;5.418;2023-10-13T10:12:50;9.98;;;3.80;;
79728;SDS011;69218;52.132;5.418;2023-10-13T10:15:31;13.57;;;3.80;;
79728;SDS011;69218;52.132;5.418;2023-10-13T10:18:01;10.13;;;3.45;;
79728;SDS011;69218;52.132;5.418;2023-10-13T10:20:32;9.02;;;3.08;;
79728;SDS011;69218;52.132;5.418;2023-10-13T10:23:08;8.02;;;3.58;;
79728;SDS011;69218;52.132;5.418;2023-10-13T10:25:48;10.48;;;3.72;;
79728;SDS011;69218;52.132;5.418;2023-10-13T10:28:18;10.60;;;4.07;;
79728;SDS011;69218;52.132;5.418;2023-10-13T10:30:46;13.55;;;4.50;;
79728;SDS011;69218;52.132;5.418;2023-10-13T10:33:12;10.82;;;3.60;;
79728;SDS011;69218;52.132;5.418;2023-10-13T10:35:43;12.63;;;4.45;;
79728;SDS011;69218;52.132;5.418;2023-10-13T10:38:17;9.90;;;3.72;;
79728;SDS011;69218;52.132;5.418;2023-10-13T10:40:51;14.25;;;4.32;;
79728;SDS011;69218;52.132;5.418;2023-10-13T10:43:28;7.28;;;3.88;;
79728;SDS011;69218;52.132;5.418;2023-10-13T10:46:15;8.95;;;3.58;;
79728;SDS011;69218;52.132;5.418;2023-10-13T10:48:51;7.65;;;3.97;;
79728;SDS011;69218;52.132;5.418;2023-10-13T10:51:22;6.50;;;3.38;;
79728;SDS011;69218;52.132;5.418;2023-10-13T10:53:53;11.65;;;3.70;;
79728;SDS011;69218;52.132;5.418;2023-10-13T10:56:23;13.02;;;4.28;;
79728;SDS011;69218;52.132;5.418;2023-10-13T10:58:55;9.95;;;3.75;;
79728;SDS011;69218;52.132;5.418;2023-10-13T11:01:24;15.48;;;4.35;;
79728;SDS011;69218;52.132;5.418;2023-10-13T11:04:01;9.90;;;3.67;;
79728;SDS011;69218;52.132;5.418;2023-10-13T11:06:46;11.93;;;3.95;;
79728;SDS011;69218;52.132;5.418;2023-10-13T11:09:26;12.35;;;4.20;;
79728;SDS011;69218;52.132;5.418;2023-10-13T11:12:12;8.45;;;4.30;;
79728;SDS011;69218;52.132;5.418;2023-10-13T11:15:02;12.75;;;3.75;;
79728;SDS011;69218;52.132;5.418;2023-10-13T11:17:49;9.95;;;4.20;;
79728;SDS011;69218;52.132;5.418;2023-10-13T11:20:21;9.90;;;3.20;;
79728;SDS011;69218;52.132;5.418;2023-10-13T11:23:01;8.80;;;3.85;;
79728;SDS011;69218;52.132;5.418;2023-10-13T11:25:31;13.15;;;3.65;;
79728;SDS011;69218;52.132;5.418;2023-10-13T11:28:11;10.23;;;3.83;;
79728;SDS011;69218;52.132;5.418;2023-10-13T11:30:54;10.30;;;3.90;;
79728;SDS011;69218;52.132;5.418;2023-10-13T11:33:25;8.68;;;3.78;;
79728;SDS011;69218;52.132;5.418;2023-10-13T11:35:56;11.63;;;4.00;;
79728;SDS011;69218;52.132;5.418;2023-10-13T11:38:27;11.73;;;3.67;;
79728;SDS011;69218;52.132;5.418;2023-10-13T11:41:07;13.35;;;3.85;;
79728;SDS011;69218;52.132;5.418;2023-10-13T11:43:48;11.45;;;4.05;;
79728;SDS011;69218;52.132;5.418;2023-10-13T11:46:16;9.52;;;3.65;;
79728;SDS011;69218;52.132;5.418;2023-10-13T11:49:02;12.18;;;3.97;;
79728;SDS011;69218;52.132;5.418;2023-10-13T11:51:48;10.48;;;3.65;;
79728;SDS011;69218;52.132;5.418;2023-10-13T11:54:18;11.93;;;4.45;;
79728;SDS011;69218;52.132;5.418;2023-10-13T11:56:48;9.27;;;3.58;;
79728;SDS011;69218;52.132;5.418;2023-10-13T11:59:15;8.88;;;4.00;;
79728;SDS011;69218;52.132;5.418;2023-10-13T12:01:44;11.02;;;4.40;;
79728;SDS011;69218;52.132;5.418;2023-10-13T12:04:35;9.98;;;4.00;;
79728;SDS011;69218;52.132;5.418;2023-10-13T12:07:18;9.00;;;3.88;;
79728;SDS011;69218;52.132;5.418;2023-10-13T12:09:51;13.63;;;3.97;;
79728;SDS011;69218;52.132;5.418;2023-10-13T12:12:24;12.75;;;4.57;;
79728;SDS011;69218;52.132;5.418;2023-10-13T12:14:53;12.35;;;4.68;;
79728;SDS011;69218;52.132;5.418;2023-10-13T12:20:01;12.23;;;4.35;;
79728;SDS011;69218;52.132;5.418;2023-10-13T12:22:32;11.45;;;4.20;;
79728;SDS011;69218;52.132;5.418;2023-10-13T12:25:02;9.80;;;4.22;;
79728;SDS011;69218;52.132;5.418;2023-10-13T12:27:45;11.27;;;4.72;;
79728;SDS011;69218;52.132;5.418;2023-10-13T12:30:14;11.32;;;4.47;;
79728;SDS011;69218;52.132;5.418;2023-10-13T12:32:51;9.15;;;4.38;;
79728;SDS011;69218;52.132;5.418;2023-10-13T12:35:25;10.48;;;4.35;;
79728;SDS011;69218;52.132;5.418;2023-10-13T12:38:01;10.75;;;4.38;;
79728;SDS011;69218;52.132;5.418;2023-10-13T12:40:31;10.45;;;4.60;;
79728;SDS011;69218;52.132;5.418;2023-10-13T12:43:16;9.52;;;4.43;;
79728;SDS011;69218;52.132;5.418;2023-10-13T12:46:02;12.63;;;3.92;;
79728;SDS011;69218;52.132;5.418;2023-10-13T12:48:46;11.05;;;4.15;;
79728;SDS011;69218;52.132;5.418;2023-10-13T12:51:24;11.88;;;4.03;;
79728;SDS011;69218;52.132;5.418;2023-10-13T12:54:00;12.20;;;4.38;;
79728;SDS011;69218;52.132;5.418;2023-10-13T12:56:53;9.98;;;4.25;;
79728;SDS011;69218;52.132;5.418;2023-10-13T12:59:23;12.95;;;4.57;;
79728;SDS011;69218;52.132;5.418;2023-10-13T13:01:53;9.07;;;3.92;;
79728;SDS011;69218;52.132;5.418;2023-10-13T13:04:20;12.93;;;4.63;;
79728;SDS011;69218;52.132;5.418;2023-10-13T13:06:48;9.65;;;4.10;;
79728;SDS011;69218;52.132;5.418;2023-10-13T13:09:16;10.02;;;4.25;;
79728;SDS011;69218;52.132;5.418;2023-10-13T13:11:52;10.48;;;4.35;;
79728;SDS011;69218;52.132;5.418;2023-10-13T13:14:23;11.52;;;4.13;;
79728;SDS011;69218;52.132;5.418;2023-10-13T13:16:56;10.23;;;4.10;;
79728;SDS011;69218;52.132;5.418;2023-10-13T13:19:35;10.52;;;4.40;;
79728;SDS011;69218;52.132;5.418;2023-10-13T13:22:06;13.10;;;4.82;;
79728;SDS011;69218;52.132;5.418;2023-10-13T13:24:39;9.90;;;4.38;;
79728;SDS011;69218;52.132;5.418;2023-10-13T13:27:14;13.13;;;4.53;;
79728;SDS011;69218;52.132;5.418;2023-10-13T13:29:44;11.75;;;4.15;;
79728;SDS011;69218;52.132;5.418;2023-10-13T13:32:10;13.20;;;4.32;;
79728;SDS011;69218;52.132;5.418;2023-10-13T13:34:50;9.73;;;4.22;;
79728;SDS011;69218;52.132;5.418;2023-10-13T13:37:43;10.73;;;4.95;;
79728;SDS011;69218;52.132;5.418;2023-10-13T13:40:11;13.88;;;4.72;;
79728;SDS011;69218;52.132;5.418;2023-10-13T13:42:41;10.98;;;4.55;;
79728;SDS011;69218;52.132;5.418;2023-10-13T13:45:15;9.70;;;4.28;;
79728;SDS011;69218;52.132;5.418;2023-10-13T13:47:54;12.60;;;5.13;;
79728;SDS011;69218;52.132;5.418;2023-10-13T13:50:25;11.07;;;5.00;;
79728;SDS011;69218;52.132;5.418;2023-10-13T13:52:56;9.82;;;4.75;;
79728;SDS011;69218;52.132;5.418;2023-10-13T13:55:24;11.60;;;4.15;;
79728;SDS011;69218;52.132;5.418;2023-10-13T13:57:55;12.57;;;4.40;;
79728;SDS011;69218;52.132;5.418;2023-10-13T14:00:23;13.05;;;4.75;;
79728;SDS011;69218;52.132;5.418;2023-10-13T14:03:04;10.25;;;4.95;;
79728;SDS011;69218;52.132;5.418;2023-10-13T14:07:58;10.35;;;4.18;;
79728;SDS011;69218;52.132;5.418;2023-10-13T14:10:25;12.05;;;4.60;;
79728;SDS011;69218;52.132;5.418;2023-10-13T14:12:59;7.82;;;4.25;;
79728;SDS011;69218;52.132;5.418;2023-10-13T14:15:47;14.35;;;4.93;;
79728;SDS011;69218;52.132;5.418;2023-10-13T14:18:13;9.55;;;4.53;;
79728;SDS011;69218;52.132;5.418;2023-10-13T14:20:44;11.10;;;4.13;;
79728;SDS011;69218;52.132;5.418;2023-10-13T14:23:10;11.30;;;4.32;;
79728;SDS011;69218;52.132;5.418;2023-10-13T14:25:40;11.00;;;4.72;;
79728;SDS011;69218;52.132;5.418;2023-10-13T14:28:11;12.60;;;5.22;;
79728;SDS011;69218;52.132;5.418;2023-10-13T14:30:41;9.55;;;4.05;;
79728;SDS011;69218;52.132;5.418;2023-10-13T14:33:07;13.80;;;5.03;;
79728;SDS011;69218;52.132;5.418;2023-10-13T14:35:37;10.68;;;4.65;;
79728;SDS011;69218;52.132;5.418;2023-10-13T14:38:03;10.80;;;4.78;;
79728;SDS011;69218;52.132;5.418;2023-10-13T14:40:30;15.43;;;4.95;;
79728;SDS011;69218;52.132;5.418;2023-10-13T14:42:56;11.13;;;4.53;;
79728;SDS011;69218;52.132;5.418;2023-10-13T14:45:23;12.77;;;4.20;;
79728;SDS011;69218;52.132;5.418;2023-10-13T14:47:49;10.65;;;4.20;;
79728;SDS011;69218;52.132;5.418;2023-10-13T14:50:18;10.70;;;4.53;;
79728;SDS011;69218;52.132;5.418;2023-10-13T14:52:47;9.45;;;4.20;;
79728;SDS011;69218;52.132;5.418;2023-10-13T14:55:15;16.20;;;4.05;;
79728;SDS011;69218;52.132;5.418;2023-10-13T14:57:48;10.10;;;4.15;;
79728;SDS011;69218;52.132;5.418;2023-10-13T15:00:17;9.38;;;4.30;;
79728;SDS011;69218;52.132;5.418;2023-10-13T15:02:51;9.77;;;4.40;;
79728;SDS011;69218;52.132;5.418;2023-10-13T15:05:19;10.75;;;4.47;;
79728;SDS011;69218;52.132;5.418;2023-10-13T15:07:46;11.38;;;3.53;;
79728;SDS011;69218;52.132;5.418;2023-10-13T15:10:15;12.15;;;4.50;;
79728;SDS011;69218;52.132;5.418;2023-10-13T15:12:42;10.85;;;3.95;;
79728;SDS011;69218;52.132;5.418;2023-10-13T15:17:42;10.98;;;3.88;;
79728;SDS011;69218;52.132;5.418;2023-10-13T15:20:09;9.25;;;3.65;;
79728;SDS011;69218;52.132;5.418;2023-10-13T15:22:45;10.48;;;4.40;;
79728;SDS011;69218;52.132;5.418;2023-10-13T15:25:16;10.35;;;3.85;;
79728;SDS011;69218;52.132;5.418;2023-10-13T15:28:08;10.65;;;3.92;;
79728;SDS011;69218;52.132;5.418;2023-10-13T15:30:36;10.70;;;3.50;;
79728;SDS011;69218;52.132;5.418;2023-10-13T15:33:11;11.68;;;4.00;;
79728;SDS011;69218;52.132;5.418;2023-10-13T15:35:39;9.68;;;3.67;;
79728;SDS011;69218;52.132;5.418;2023-10-13T15:38:09;12.82;;;4.28;;
79728;SDS011;69218;52.132;5.418;2023-10-13T15:40:41;9.57;;;4.40;;
79728;SDS011;69218;52.132;5.418;2023-10-13T15:43:11;11.05;;;4.40;;
79728;SDS011;69218;52.132;5.418;2023-10-13T15:45:38;9.98;;;5.03;;
79728;SDS011;69218;52.132;5.418;2023-10-13T15:48:06;12.88;;;4.68;;